sensor_id;sensor_type;location;lat;lon;timestamp;pressure;altitude;pressure_sealevel;temperature;humidity
11888;BME280;6003;42.756;23.130;2023-02-14T00:00:04;152095.34;;;-1.24;98.74
11888;BME280;6003;42.756;23.130;2023-02-14T00:02:33;152094.06;;;-1.24;99.18
11888;BME280;6003;42.756;23.130;2023-02-14T00:04:59;152094.06;;;-1.24;98.66
11888;BME280;6003;42.756;23.130;2023-02-14T00:07:26;152130.69;;;-1.10;98.89
11888;BME280;6003;42.756;23.130;2023-02-14T00:09:53;152162.16;;;-0.98;99.19
11888;BME280;6003;42.756;23.130;2023-02-14T00:12:20;152188.31;;;-0.87;98.29
11888;BME280;6003;42.756;23.130;2023-02-14T00:14:47;152215.81;;;-0.77;99.04
11888;BME280;6003;42.756;23.130;2023-02-14T00:17:33;152243.31;;;-0.66;99.20
11888;BME280;6003;42.756;23.130;2023-02-14T00:19:59;152277.34;;;-0.53;99.58
11888;BME280;6003;42.756;23.130;2023-02-14T00:22:26;152316.66;;;-0.37;99.34
11888;BME280;6003;42.756;23.130;2023-02-14T00:24:53;152363.78;;;-0.19;98.65
11888;BME280;6003;42.756;23.130;2023-02-14T00:27:20;152389.97;;;-0.09;97.42
11888;BME280;6003;42.756;23.130;2023-02-14T00:29:47;152403.06;;;-0.04;97.50
11888;BME280;6003;42.756;23.130;2023-02-14T00:32:14;152421.44;;;0.04;97.61
11888;BME280;6003;42.756;23.130;2023-02-14T00:34:42;152434.56;;;0.09;97.82
11888;BME280;6003;42.756;23.130;2023-02-14T00:37:09;152433.19;;;0.08;96.41
11888;BME280;6003;42.756;23.130;2023-02-14T00:39:36;152446.31;;;0.13;97.55
11888;BME280;6003;42.756;23.130;2023-02-14T00:42:02;152459.44;;;0.18;97.19
11888;BME280;6003;42.756;23.130;2023-02-14T00:44:30;152458.13;;;0.18;96.49
11888;BME280;6003;42.756;23.130;2023-02-14T00:46:56;152479.09;;;0.26;96.28
11888;BME280;6003;42.756;23.130;2023-02-14T00:49:23;152498.72;;;0.34;96.01
11888;BME280;6003;42.756;23.130;2023-02-14T00:51:52;152506.59;;;0.37;96.10
11888;BME280;6003;42.756;23.130;2023-02-14T00:54:18;152515.78;;;0.40;95.53
11888;BME280;6003;42.756;23.130;2023-02-14T00:56:45;152507.88;;;0.37;96.51
11888;BME280;6003;42.756;23.130;2023-02-14T00:59:13;152505.28;;;0.36;95.70
11888;BME280;6003;42.756;23.130;2023-02-14T01:01:39;152519.69;;;0.42;96.11
11888;BME280;6003;42.756;23.130;2023-02-14T01:04:06;152519.69;;;0.42;95.06
11888;BME280;6003;42.756;23.130;2023-02-14T01:06:33;152505.28;;;0.36;94.90
11888;BME280;6003;42.756;23.130;2023-02-14T01:09:02;152536.72;;;0.49;94.97
11888;BME280;6003;42.756;23.130;2023-02-14T01:11:29;152534.13;;;0.48;95.21
11888;BME280;6003;42.756;23.130;2023-02-14T01:13:57;152530.16;;;0.46;95.38
11888;BME280;6003;42.756;23.130;2023-02-14T01:16:25;152541.97;;;0.51;95.11
11888;BME280;6003;42.756;23.130;2023-02-14T01:18:52;152545.94;;;0.52;94.99
11888;BME280;6003;42.756;23.130;2023-02-14T01:21:21;152547.25;;;0.53;94.30
11888;BME280;6003;42.756;23.130;2023-02-14T01:23:50;152564.25;;;0.59;94.40
11888;BME280;6003;42.756;23.130;2023-02-14T01:26:19;152556.41;;;0.56;94.85
11888;BME280;6003;42.756;23.130;2023-02-14T01:28:47;152564.25;;;0.59;94.28
11888;BME280;6003;42.756;23.130;2023-02-14T01:31:17;152581.28;;;0.66;94.11
11888;BME280;6003;42.756;23.130;2023-02-14T01:33:46;152586.56;;;0.68;94.30
11888;BME280;6003;42.756;23.130;2023-02-14T01:36:17;152578.69;;;0.65;93.49
11888;BME280;6003;42.756;23.130;2023-02-14T01:38:45;152602.28;;;0.74;94.23
11888;BME280;6003;42.756;23.130;2023-02-14T01:41:12;152602.28;;;0.74;93.06
11888;BME280;6003;42.756;23.130;2023-02-14T01:44:04;152599.66;;;0.73;93.15
11888;BME280;6003;42.756;23.130;2023-02-14T01:46:33;152597.06;;;0.72;92.74
11888;BME280;6003;42.756;23.130;2023-02-14T01:49:03;152593.09;;;0.71;94.05
11888;BME280;6003;42.756;23.130;2023-02-14T01:51:32;152603.56;;;0.75;92.88
11888;BME280;6003;42.756;23.130;2023-02-14T01:54:01;152606.22;;;0.76;92.80
11888;BME280;6003;42.756;23.130;2023-02-14T01:56:33;152594.41;;;0.71;93.85
11888;BME280;6003;42.756;23.130;2023-02-14T01:59:06;152582.63;;;0.66;92.90
11888;BME280;6003;42.756;23.130;2023-02-14T02:01:34;152594.41;;;0.71;93.76
11888;BME280;6003;42.756;23.130;2023-02-14T02:04:05;152580.00;;;0.65;94.04
11888;BME280;6003;42.756;23.130;2023-02-14T02:06:34;152557.69;;;0.57;93.32
11888;BME280;6003;42.756;23.130;2023-02-14T02:09:09;152594.41;;;0.71;93.09
11888;BME280;6003;42.756;23.130;2023-02-14T02:11:39;152598.38;;;0.73;93.23
11888;BME280;6003;42.756;23.130;2023-02-14T02:14:12;152589.16;;;0.69;93.96
11888;BME280;6003;42.756;23.130;2023-02-14T02:16:55;152602.28;;;0.74;93.25
11888;BME280;6003;42.756;23.130;2023-02-14T02:22:56;152591.81;;;0.70;93.55
11888;BME280;6003;42.756;23.130;2023-02-14T02:25:42;152570.81;;;0.62;93.57
11888;BME280;6003;42.756;23.130;2023-02-14T02:31:31;152562.97;;;0.59;94.05
11888;BME280;6003;42.756;23.130;2023-02-14T02:37:28;152578.69;;;0.65;93.22
11888;BME280;6003;42.756;23.130;2023-02-14T02:40:06;152577.38;;;0.64;93.08
11888;BME280;6003;42.756;23.130;2023-02-14T02:42:45;152568.22;;;0.61;92.79
11888;BME280;6003;42.756;23.130;2023-02-14T02:45:22;152586.56;;;0.68;92.19
11888;BME280;6003;42.756;23.130;2023-02-14T02:47:54;152582.63;;;0.66;92.03
11888;BME280;6003;42.756;23.130;2023-02-14T02:50:27;152573.44;;;0.63;92.41
11888;BME280;6003;42.756;23.130;2023-02-14T02:53:23;152560.34;;;0.58;93.20
11888;BME280;6003;42.756;23.130;2023-02-14T02:55:58;152552.50;;;0.55;92.17
11888;BME280;6003;42.756;23.130;2023-02-14T02:58:47;152547.25;;;0.53;93.18
11888;BME280;6003;42.756;23.130;2023-02-14T03:01:20;152549.84;;;0.54;92.59
11888;BME280;6003;42.756;23.130;2023-02-14T03:03:48;152543.28;;;0.51;92.45
11888;BME280;6003;42.756;23.130;2023-02-14T03:06:36;152532.81;;;0.47;92.52
11888;BME280;6003;42.756;23.130;2023-02-14T03:09:12;152545.94;;;0.52;93.52
11888;BME280;6003;42.756;23.130;2023-02-14T03:12:08;152526.25;;;0.44;93.85
11888;BME280;6003;42.756;23.130;2023-02-14T03:14:42;152523.66;;;0.43;93.63
11888;BME280;6003;42.756;23.130;2023-02-14T03:17:19;152494.81;;;0.32;93.76
11888;BME280;6003;42.756;23.130;2023-02-14T03:19:54;152496.13;;;0.33;94.35
11888;BME280;6003;42.756;23.130;2023-02-14T03:22:47;152479.09;;;0.26;94.30
11888;BME280;6003;42.756;23.130;2023-02-14T03:25:25;152450.28;;;0.15;93.89
11888;BME280;6003;42.756;23.130;2023-02-14T03:28:01;152437.16;;;0.10;93.65
11888;BME280;6003;42.756;23.130;2023-02-14T03:30:35;152437.16;;;0.10;94.81
11888;BME280;6003;42.756;23.130;2023-02-14T03:33:12;152431.91;;;0.08;94.81
11888;BME280;6003;42.756;23.130;2023-02-14T03:35:47;152434.56;;;0.09;95.18
11888;BME280;6003;42.756;23.130;2023-02-14T03:38:20;152422.75;;;0.04;95.29
11888;BME280;6003;42.756;23.130;2023-02-14T03:40:52;152433.19;;;0.08;94.68
11888;BME280;6003;42.756;23.130;2023-02-14T03:43:25;152407.03;;;-0.02;95.43
11888;BME280;6003;42.756;23.130;2023-02-14T03:45:57;152437.16;;;0.10;95.48
11888;BME280;6003;42.756;23.130;2023-02-14T03:48:27;152446.31;;;0.13;94.77
11888;BME280;6003;42.756;23.130;2023-02-14T03:50:57;152426.66;;;0.06;94.91
11888;BME280;6003;42.756;23.130;2023-02-14T03:53:27;152442.41;;;0.12;94.42
11888;BME280;6003;42.756;23.130;2023-02-14T03:56:02;152434.56;;;0.09;95.27
11888;BME280;6003;42.756;23.130;2023-02-14T03:58:36;152437.16;;;0.10;94.36
11888;BME280;6003;42.756;23.130;2023-02-14T04:01:08;152448.91;;;0.14;94.80
11888;BME280;6003;42.756;23.130;2023-02-14T04:03:38;152445.00;;;0.13;94.37
11888;BME280;6003;42.756;23.130;2023-02-14T04:06:06;152443.72;;;0.12;94.21
11888;BME280;6003;42.756;23.130;2023-02-14T04:08:33;152441.06;;;0.11;94.38
11888;BME280;6003;42.756;23.130;2023-02-14T04:11:03;152450.28;;;0.15;94.47
11888;BME280;6003;42.756;23.130;2023-02-14T04:13:30;152455.47;;;0.17;93.77
11888;BME280;6003;42.756;23.130;2023-02-14T04:15:57;152463.34;;;0.20;93.93
11888;BME280;6003;42.756;23.130;2023-02-14T04:18:24;152476.44;;;0.25;94.29
11888;BME280;6003;42.756;23.130;2023-02-14T04:21:09;152460.72;;;0.19;94.27
11888;BME280;6003;42.756;23.130;2023-02-14T04:23:36;152469.88;;;0.22;93.81
11888;BME280;6003;42.756;23.130;2023-02-14T04:26:05;152483.00;;;0.28;93.80
11888;BME280;6003;42.756;23.130;2023-02-14T04:28:32;152481.69;;;0.27;92.76
11888;BME280;6003;42.756;23.130;2023-02-14T04:31:00;152442.41;;;0.12;93.01
11888;BME280;6003;42.756;23.130;2023-02-14T04:33:27;152476.44;;;0.25;93.47
11888;BME280;6003;42.756;23.130;2023-02-14T04:35:54;152476.44;;;0.25;92.66
11888;BME280;6003;42.756;23.130;2023-02-14T04:38:21;152476.44;;;0.25;92.92
11888;BME280;6003;42.756;23.130;2023-02-14T04:40:48;152468.59;;;0.22;92.90
11888;BME280;6003;42.756;23.130;2023-02-14T04:43:17;152466.00;;;0.21;93.66
11888;BME280;6003;42.756;23.130;2023-02-14T04:45:44;152471.19;;;0.23;93.10
11888;BME280;6003;42.756;23.130;2023-02-14T04:48:11;152466.00;;;0.21;93.54
11888;BME280;6003;42.756;23.130;2023-02-14T04:50:37;152464.69;;;0.20;93.37
11888;BME280;6003;42.756;23.130;2023-02-14T04:53:04;152472.53;;;0.24;93.90
11888;BME280;6003;42.756;23.130;2023-02-14T04:55:31;152455.47;;;0.17;94.00
11888;BME280;6003;42.756;23.130;2023-02-14T04:57:58;152455.47;;;0.17;93.85
11888;BME280;6003;42.756;23.130;2023-02-14T05:00:26;152445.00;;;0.13;93.55
11888;BME280;6003;42.756;23.130;2023-02-14T05:02:53;152429.31;;;0.07;94.31
11888;BME280;6003;42.756;23.130;2023-02-14T05:05:20;152416.19;;;0.02;93.67
11888;BME280;6003;42.756;23.130;2023-02-14T05:07:47;152421.44;;;0.04;93.73
11888;BME280;6003;42.756;23.130;2023-02-14T05:10:13;152435.84;;;0.09;94.62
11888;BME280;6003;42.756;23.130;2023-02-14T05:12:41;152429.31;;;0.07;94.23
11888;BME280;6003;42.756;23.130;2023-02-14T05:15:08;152418.78;;;0.03;94.68
11888;BME280;6003;42.756;23.130;2023-02-14T05:17:36;152420.13;;;0.03;94.32
11888;BME280;6003;42.756;23.130;2023-02-14T05:20:04;152431.91;;;0.08;93.86
11888;BME280;6003;42.756;23.130;2023-02-14T05:22:31;152447.63;;;0.14;93.63
11888;BME280;6003;42.756;23.130;2023-02-14T05:24:58;152469.88;;;0.22;93.79
11888;BME280;6003;42.756;23.130;2023-02-14T05:27:25;152475.16;;;0.25;92.78
11888;BME280;6003;42.756;23.130;2023-02-14T05:29:51;152485.59;;;0.29;92.20
11888;BME280;6003;42.756;23.130;2023-02-14T05:32:19;152503.97;;;0.36;92.39
11888;BME280;6003;42.756;23.130;2023-02-14T05:34:47;152507.88;;;0.37;92.71
11888;BME280;6003;42.756;23.130;2023-02-14T05:37:14;152505.28;;;0.36;92.06
11888;BME280;6003;42.756;23.130;2023-02-14T05:39:41;152510.53;;;0.38;92.94
11888;BME280;6003;42.756;23.130;2023-02-14T05:42:07;152522.31;;;0.43;92.13
11888;BME280;6003;42.756;23.130;2023-02-14T05:44:34;152531.53;;;0.47;92.51
11888;BME280;6003;42.756;23.130;2023-02-14T05:47:01;152544.59;;;0.52;92.07
11888;BME280;6003;42.756;23.130;2023-02-14T05:49:28;152560.34;;;0.58;92.84
11888;BME280;6003;42.756;23.130;2023-02-14T05:51:56;152583.94;;;0.67;91.84
11888;BME280;6003;42.756;23.130;2023-02-14T05:54:23;152600.97;;;0.74;92.29
11888;BME280;6003;42.756;23.130;2023-02-14T05:56:50;152621.97;;;0.82;91.20
11888;BME280;6003;42.756;23.130;2023-02-14T05:59:17;152638.97;;;0.88;91.13
11888;BME280;6003;42.756;23.130;2023-02-14T06:01:44;152657.38;;;0.96;91.20
11888;BME280;6003;42.756;23.130;2023-02-14T06:04:10;152667.84;;;1.00;90.83
11888;BME280;6003;42.756;23.130;2023-02-14T06:06:37;152717.69;;;1.19;90.61
11888;BME280;6003;42.756;23.130;2023-02-14T06:09:06;152757.00;;;1.34;90.50
11888;BME280;6003;42.756;23.130;2023-02-14T06:11:33;152774.09;;;1.41;90.40
11888;BME280;6003;42.756;23.130;2023-02-14T06:13:59;152799.00;;;1.51;90.09
11888;BME280;6003;42.756;23.130;2023-02-14T06:16:26;152817.34;;;1.58;88.50
11888;BME280;6003;42.756;23.130;2023-02-14T06:18:53;152830.47;;;1.63;89.19
11888;BME280;6003;42.756;23.130;2023-02-14T06:21:20;152833.13;;;1.64;88.93
11888;BME280;6003;42.756;23.130;2023-02-14T06:23:47;152847.56;;;1.70;89.12
11888;BME280;6003;42.756;23.130;2023-02-14T06:26:15;152859.34;;;1.74;88.42
11888;BME280;6003;42.756;23.130;2023-02-14T06:28:42;152871.19;;;1.79;88.03
11888;BME280;6003;42.756;23.130;2023-02-14T06:31:14;152861.94;;;1.75;88.37
11888;BME280;6003;42.756;23.130;2023-02-14T06:33:41;152841.00;;;1.67;89.63
11888;BME280;6003;42.756;23.130;2023-02-14T06:36:08;152809.47;;;1.55;88.84
11888;BME280;6003;42.756;23.130;2023-02-14T06:38:35;152817.34;;;1.58;90.00
11888;BME280;6003;42.756;23.130;2023-02-14T06:41:02;152850.19;;;1.71;89.39
11888;BME280;6003;42.756;23.130;2023-02-14T06:43:31;152881.66;;;1.83;90.05
11888;BME280;6003;42.756;23.130;2023-02-14T06:45:58;152902.66;;;1.91;90.04
11888;BME280;6003;42.756;23.130;2023-02-14T06:48:25;152898.69;;;1.90;89.14
11888;BME280;6003;42.756;23.130;2023-02-14T06:50:52;152919.69;;;1.98;90.01
11888;BME280;6003;42.756;23.130;2023-02-14T06:53:19;152922.38;;;1.99;89.57
11888;BME280;6003;42.756;23.130;2023-02-14T06:55:46;152940.72;;;2.06;89.54
11888;BME280;6003;42.756;23.130;2023-02-14T06:58:13;152949.88;;;2.10;89.66
11888;BME280;6003;42.756;23.130;2023-02-14T07:00:42;152948.59;;;2.09;89.40
11888;BME280;6003;42.756;23.130;2023-02-14T07:03:09;152942.00;;;2.07;90.46
11888;BME280;6003;42.756;23.130;2023-02-14T07:05:36;152931.53;;;2.02;91.44
11888;BME280;6003;42.756;23.130;2023-02-14T07:08:03;152952.53;;;2.11;91.66
11888;BME280;6003;42.756;23.130;2023-02-14T07:10:31;152964.31;;;2.15;92.29
11888;BME280;6003;42.756;23.130;2023-02-14T07:12:58;152930.22;;;2.02;92.61
11888;BME280;6003;42.756;23.130;2023-02-14T07:15:26;152945.97;;;2.08;92.87
11888;BME280;6003;42.756;23.130;2023-02-14T07:17:54;152953.84;;;2.11;93.36
11888;BME280;6003;42.756;23.130;2023-02-14T07:20:22;152940.72;;;2.06;93.24
11888;BME280;6003;42.756;23.130;2023-02-14T07:22:48;152940.72;;;2.06;93.79
11888;BME280;6003;42.756;23.130;2023-02-14T07:25:15;152930.22;;;2.02;94.15
11888;BME280;6003;42.756;23.130;2023-02-14T07:27:43;152940.72;;;2.06;94.57
11888;BME280;6003;42.756;23.130;2023-02-14T07:30:11;152951.25;;;2.10;93.99
11888;BME280;6003;42.756;23.130;2023-02-14T07:32:39;152932.84;;;2.03;93.89
11888;BME280;6003;42.756;23.130;2023-02-14T07:35:08;152919.69;;;1.98;94.99
11888;BME280;6003;42.756;23.130;2023-02-14T07:37:34;152931.53;;;2.02;95.41
11888;BME280;6003;42.756;23.130;2023-02-14T07:40:02;152938.09;;;2.05;95.72
11888;BME280;6003;42.756;23.130;2023-02-14T07:42:41;152951.25;;;2.10;94.91
11888;BME280;6003;42.756;23.130;2023-02-14T07:45:08;152948.59;;;2.09;94.45
11888;BME280;6003;42.756;23.130;2023-02-14T07:47:35;152947.28;;;2.09;94.97
11888;BME280;6003;42.756;23.130;2023-02-14T07:50:03;152959.09;;;2.13;94.28
11888;BME280;6003;42.756;23.130;2023-02-14T07:52:31;152948.59;;;2.09;94.33
11888;BME280;6003;42.756;23.130;2023-02-14T07:54:58;152959.09;;;2.13;94.87
11888;BME280;6003;42.756;23.130;2023-02-14T07:57:25;152960.41;;;2.14;94.54
11888;BME280;6003;42.756;23.130;2023-02-14T07:59:52;152956.44;;;2.12;95.00
11888;BME280;6003;42.756;23.130;2023-02-14T08:02:19;152982.72;;;2.22;94.80
11888;BME280;6003;42.756;23.130;2023-02-14T08:04:45;153001.09;;;2.30;94.57
11888;BME280;6003;42.756;23.130;2023-02-14T08:07:12;153018.19;;;2.36;94.04
11888;BME280;6003;42.756;23.130;2023-02-14T08:09:40;153016.84;;;2.36;93.65
11888;BME280;6003;42.756;23.130;2023-02-14T08:12:26;152998.47;;;2.29;93.31
11888;BME280;6003;42.756;23.130;2023-02-14T08:15:10;152974.84;;;2.19;93.84
11888;BME280;6003;42.756;23.130;2023-02-14T08:17:54;152993.22;;;2.26;94.36
11888;BME280;6003;42.756;23.130;2023-02-14T08:20:22;153001.09;;;2.30;94.07
11888;BME280;6003;42.756;23.130;2023-02-14T08:22:48;152969.59;;;2.17;93.52
11888;BME280;6003;42.756;23.130;2023-02-14T08:25:17;152947.28;;;2.09;94.41
11888;BME280;6003;42.756;23.130;2023-02-14T08:27:44;152945.97;;;2.08;94.77
11888;BME280;6003;42.756;23.130;2023-02-14T08:30:11;152932.84;;;2.03;94.84
11888;BME280;6003;42.756;23.130;2023-02-14T08:32:39;152931.53;;;2.02;95.70
11888;BME280;6003;42.756;23.130;2023-02-14T08:35:06;152924.97;;;2.00;96.22
11888;BME280;6003;42.756;23.130;2023-02-14T08:37:33;152918.41;;;1.97;95.96
11888;BME280;6003;42.756;23.130;2023-02-14T08:40:00;152930.22;;;2.02;96.43
11888;BME280;6003;42.756;23.130;2023-02-14T08:42:28;152909.22;;;1.94;96.61
11888;BME280;6003;42.756;23.130;2023-02-14T08:44:55;152901.34;;;1.91;96.56
11888;BME280;6003;42.756;23.130;2023-02-14T08:47:22;152918.41;;;1.97;96.89
11888;BME280;6003;42.756;23.130;2023-02-14T08:49:49;152914.50;;;1.96;95.77
11888;BME280;6003;42.756;23.130;2023-02-14T08:52:16;152924.97;;;2.00;95.97
11888;BME280;6003;42.756;23.130;2023-02-14T08:54:43;152915.78;;;1.96;96.35
11888;BME280;6003;42.756;23.130;2023-02-14T08:57:10;152917.09;;;1.97;96.04
11888;BME280;6003;42.756;23.130;2023-02-14T08:59:38;152927.56;;;2.01;94.98
11888;BME280;6003;42.756;23.130;2023-02-14T09:02:05;152935.44;;;2.04;95.71
11888;BME280;6003;42.756;23.130;2023-02-14T09:04:33;152926.28;;;2.00;95.01
11888;BME280;6003;42.756;23.130;2023-02-14T09:07:00;152940.72;;;2.06;94.88
11888;BME280;6003;42.756;23.130;2023-02-14T09:09:29;152969.59;;;2.17;95.26
11888;BME280;6003;42.756;23.130;2023-02-14T09:11:57;152959.09;;;2.13;94.78
11888;BME280;6003;42.756;23.130;2023-02-14T09:14:24;152913.13;;;1.95;95.61
11888;BME280;6003;42.756;23.130;2023-02-14T09:16:52;152911.84;;;1.95;96.16
11888;BME280;6003;42.756;23.130;2023-02-14T09:19:19;152940.72;;;2.06;96.32
11888;BME280;6003;42.756;23.130;2023-02-14T09:21:46;152938.09;;;2.05;95.88
11888;BME280;6003;42.756;23.130;2023-02-14T09:24:13;152944.66;;;2.08;96.00
11888;BME280;6003;42.756;23.130;2023-02-14T09:26:39;152965.69;;;2.16;95.53
11888;BME280;6003;42.756;23.130;2023-02-14T09:29:07;152988.00;;;2.24;95.97
11888;BME280;6003;42.756;23.130;2023-02-14T09:31:36;153011.63;;;2.34;95.49
11888;BME280;6003;42.756;23.130;2023-02-14T09:34:04;152998.47;;;2.29;94.59
11888;BME280;6003;42.756;23.130;2023-02-14T09:36:31;152990.59;;;2.25;94.85
11888;BME280;6003;42.756;23.130;2023-02-14T09:38:58;152966.97;;;2.16;94.86
11888;BME280;6003;42.756;23.130;2023-02-14T09:41:43;152985.34;;;2.23;94.44
11888;BME280;6003;42.756;23.130;2023-02-14T09:44:23;152959.09;;;2.13;94.15
11888;BME280;6003;42.756;23.130;2023-02-14T09:46:52;152980.06;;;2.21;95.36
11888;BME280;6003;42.756;23.130;2023-02-14T09:49:29;153008.97;;;2.33;94.30
11888;BME280;6003;42.756;23.130;2023-02-14T09:51:58;153056.25;;;2.51;93.96
11888;BME280;6003;42.756;23.130;2023-02-14T09:54:29;153137.66;;;2.83;93.80
11888;BME280;6003;42.756;23.130;2023-02-14T09:56:59;153190.19;;;3.03;92.85
11888;BME280;6003;42.756;23.130;2023-02-14T09:59:32;153170.47;;;2.96;90.69
11888;BME280;6003;42.756;23.130;2023-02-14T10:02:15;153166.56;;;2.94;90.46
11888;BME280;6003;42.756;23.130;2023-02-14T10:04:56;153150.81;;;2.88;90.08
11888;BME280;6003;42.756;23.130;2023-02-14T10:07:30;153140.28;;;2.84;90.03
11888;BME280;6003;42.756;23.130;2023-02-14T10:10:02;153086.44;;;2.63;89.85
11888;BME280;6003;42.756;23.130;2023-02-14T10:12:36;153091.72;;;2.65;90.00
11888;BME280;6003;42.756;23.130;2023-02-14T10:15:10;153061.47;;;2.53;90.38
11888;BME280;6003;42.756;23.130;2023-02-14T10:17:41;153056.25;;;2.51;90.45
11888;BME280;6003;42.756;23.130;2023-02-14T10:23:03;153022.09;;;2.38;90.79
11888;BME280;6003;42.756;23.130;2023-02-14T10:25:37;152990.59;;;2.25;90.76
11888;BME280;6003;42.756;23.130;2023-02-14T10:28:08;152990.59;;;2.25;91.31
11888;BME280;6003;42.756;23.130;2023-02-14T10:30:38;152963.03;;;2.15;91.66
11888;BME280;6003;42.756;23.130;2023-02-14T10:33:10;152943.31;;;2.07;92.69
11888;BME280;6003;42.756;23.130;2023-02-14T10:35:46;152945.97;;;2.08;93.30
11888;BME280;6003;42.756;23.130;2023-02-14T10:38:26;152956.44;;;2.12;93.22
11888;BME280;6003;42.756;23.130;2023-02-14T10:41:19;152961.72;;;2.14;92.20
11888;BME280;6003;42.756;23.130;2023-02-14T10:43:57;152993.22;;;2.26;92.08
11888;BME280;6003;42.756;23.130;2023-02-14T10:46:35;152965.69;;;2.16;91.79
11888;BME280;6003;42.756;23.130;2023-02-14T10:49:17;152935.44;;;2.04;91.86
11888;BME280;6003;42.756;23.130;2023-02-14T10:51:54;152948.59;;;2.09;92.09
11888;BME280;6003;42.756;23.130;2023-02-14T10:54:26;152932.84;;;2.03;91.69
11888;BME280;6003;42.756;23.130;2023-02-14T10:56:57;152947.28;;;2.09;90.78
11888;BME280;6003;42.756;23.130;2023-02-14T10:59:27;152969.59;;;2.17;91.29
11888;BME280;6003;42.756;23.130;2023-02-14T11:01:58;152959.09;;;2.13;90.34
11888;BME280;6003;42.756;23.130;2023-02-14T11:04:26;152951.25;;;2.10;89.93
11888;BME280;6003;42.756;23.130;2023-02-14T11:06:53;152948.59;;;2.09;90.21
11888;BME280;6003;42.756;23.130;2023-02-14T11:09:20;152982.72;;;2.22;90.75
11888;BME280;6003;42.756;23.130;2023-02-14T11:11:50;152985.34;;;2.23;90.23
11888;BME280;6003;42.756;23.130;2023-02-14T11:14:20;153014.22;;;2.35;89.41
11888;BME280;6003;42.756;23.130;2023-02-14T11:16:47;153002.38;;;2.30;88.84
11888;BME280;6003;42.756;23.130;2023-02-14T11:19:21;153031.28;;;2.41;88.43
11888;BME280;6003;42.756;23.130;2023-02-14T11:21:49;153037.84;;;2.44;88.83
11888;BME280;6003;42.756;23.130;2023-02-14T11:24:18;153074.63;;;2.58;87.84
11888;BME280;6003;42.756;23.130;2023-02-14T11:26:46;153083.84;;;2.62;87.09
11888;BME280;6003;42.756;23.130;2023-02-14T11:29:20;153111.38;;;2.72;87.07
11888;BME280;6003;42.756;23.130;2023-02-14T11:31:49;153145.53;;;2.86;86.36
11888;BME280;6003;42.756;23.130;2023-02-14T11:34:30;153111.38;;;2.72;85.56
11888;BME280;6003;42.756;23.130;2023-02-14T11:36:59;153128.50;;;2.79;85.45
11888;BME280;6003;42.756;23.130;2023-02-14T11:39:29;153148.16;;;2.87;85.55
11888;BME280;6003;42.756;23.130;2023-02-14T11:42:04;153163.91;;;2.93;85.18
11888;BME280;6003;42.756;23.130;2023-02-14T11:44:33;153163.91;;;2.93;85.56
11888;BME280;6003;42.756;23.130;2023-02-14T11:47:17;153129.78;;;2.80;85.42
11888;BME280;6003;42.756;23.130;2023-02-14T11:49:54;153116.66;;;2.75;85.89
11888;BME280;6003;42.756;23.130;2023-02-14T11:52:28;153129.78;;;2.80;86.22
11888;BME280;6003;42.756;23.130;2023-02-14T11:54:59;153132.41;;;2.81;85.93
11888;BME280;6003;42.756;23.130;2023-02-14T11:57:28;153136.38;;;2.82;86.03
11888;BME280;6003;42.756;23.130;2023-02-14T12:00:02;153169.19;;;2.95;86.18
11888;BME280;6003;42.756;23.130;2023-02-14T12:02:35;153153.44;;;2.89;85.36
11888;BME280;6003;42.756;23.130;2023-02-14T12:05:05;153129.78;;;2.80;85.78
11888;BME280;6003;42.756;23.130;2023-02-14T12:07:34;153103.50;;;2.69;86.02
11888;BME280;6003;42.756;23.130;2023-02-14T12:10:22;153133.72;;;2.81;85.88
11888;BME280;6003;42.756;23.130;2023-02-14T12:12:52;153136.38;;;2.82;86.65
11888;BME280;6003;42.756;23.130;2023-02-14T12:15:35;153178.34;;;2.99;86.13
11888;BME280;6003;42.756;23.130;2023-02-14T12:18:20;153184.94;;;3.01;85.89
11888;BME280;6003;42.756;23.130;2023-02-14T12:20:54;153156.03;;;2.90;85.99
11888;BME280;6003;42.756;23.130;2023-02-14T12:23:26;153182.31;;;3.00;85.40
11888;BME280;6003;42.756;23.130;2023-02-14T12:26:00;153208.56;;;3.10;86.24
11888;BME280;6003;42.756;23.130;2023-02-14T12:28:31;153202.00;;;3.08;85.86
11888;BME280;6003;42.756;23.130;2023-02-14T12:31:08;153221.72;;;3.15;85.69
11888;BME280;6003;42.756;23.130;2023-02-14T12:33:37;153226.97;;;3.17;86.36
11888;BME280;6003;42.756;23.130;2023-02-14T12:36:08;153224.38;;;3.16;85.72
11888;BME280;6003;42.756;23.130;2023-02-14T12:38:48;153187.59;;;3.02;85.36
11888;BME280;6003;42.756;23.130;2023-02-14T12:41:28;153190.19;;;3.03;86.39
11888;BME280;6003;42.756;23.130;2023-02-14T12:44:00;153219.09;;;3.14;86.03
11888;BME280;6003;42.756;23.130;2023-02-14T12:47:00;153198.06;;;3.06;86.44
11888;BME280;6003;42.756;23.130;2023-02-14T12:49:54;153207.25;;;3.10;86.61
11888;BME280;6003;42.756;23.130;2023-02-14T12:52:47;153195.47;;;3.05;86.07
11888;BME280;6003;42.756;23.130;2023-02-14T12:55:34;153182.31;;;3.00;86.86
11888;BME280;6003;42.756;23.130;2023-02-14T12:58:15;153173.13;;;2.97;86.78
11888;BME280;6003;42.756;23.130;2023-02-14T13:00:53;153171.78;;;2.96;87.49
11888;BME280;6003;42.756;23.130;2023-02-14T13:03:37;153171.78;;;2.96;87.51
11888;BME280;6003;42.756;23.130;2023-02-14T13:06:14;153165.25;;;2.93;87.34
11888;BME280;6003;42.756;23.130;2023-02-14T13:08:58;153174.44;;;2.97;87.50
11888;BME280;6003;42.756;23.130;2023-02-14T13:11:35;153171.78;;;2.96;87.64
11888;BME280;6003;42.756;23.130;2023-02-14T13:14:13;153171.78;;;2.96;87.87
11888;BME280;6003;42.756;23.130;2023-02-14T13:16:50;153161.28;;;2.92;87.91
11888;BME280;6003;42.756;23.130;2023-02-14T13:19:33;153167.88;;;2.94;88.13
11888;BME280;6003;42.756;23.130;2023-02-14T13:22:03;153173.13;;;2.97;87.72
11888;BME280;6003;42.756;23.130;2023-02-14T13:24:37;153156.03;;;2.90;87.81
11888;BME280;6003;42.756;23.130;2023-02-14T13:27:07;153156.03;;;2.90;87.91
11888;BME280;6003;42.756;23.130;2023-02-14T13:29:42;153142.88;;;2.85;87.89
11888;BME280;6003;42.756;23.130;2023-02-14T13:32:14;153152.13;;;2.88;88.06